sensor_id;sensor_type;location;lat;lon;timestamp;temperature;humidity
4578;DHT22;2301;47.354;8.528;2022-12-20T00:01:06;8.10;95.90
4578;DHT22;2301;47.354;8.528;2022-12-20T00:03:35;8.20;95.80
4578;DHT22;2301;47.354;8.528;2022-12-20T00:06:02;8.20;95.90
4578;DHT22;2301;47.354;8.528;2022-12-20T00:08:29;8.20;95.60
4578;DHT22;2301;47.354;8.528;2022-12-20T00:10:59;8.20;95.10
4578;DHT22;2301;47.354;8.528;2022-12-20T00:13:27;8.20;95.20
4578;DHT22;2301;47.354;8.528;2022-12-20T00:16:03;8.10;94.80
4578;DHT22;2301;47.354;8.528;2022-12-20T00:18:30;8.20;94.80
4578;DHT22;2301;47.354;8.528;2022-12-20T00:20:59;8.10;94.60
4578;DHT22;2301;47.354;8.528;2022-12-20T00:23:27;8.10;94.80
4578;DHT22;2301;47.354;8.528;2022-12-20T00:25:59;8.10;95.00
4578;DHT22;2301;47.354;8.528;2022-12-20T00:28:26;8.10;94.50
4578;DHT22;2301;47.354;8.528;2022-12-20T00:30:53;8.10;94.70
4578;DHT22;2301;47.354;8.528;2022-12-20T00:33:21;8.10;94.60
4578;DHT22;2301;47.354;8.528;2022-12-20T00:35:48;8.10;94.80
4578;DHT22;2301;47.354;8.528;2022-12-20T00:38:16;8.10;94.80
4578;DHT22;2301;47.354;8.528;2022-12-20T00:40:44;8.20;94.80
4578;DHT22;2301;47.354;8.528;2022-12-20T00:43:11;8.10;94.30
4578;DHT22;2301;47.354;8.528;2022-12-20T00:45:38;8.20;94.50
4578;DHT22;2301;47.354;8.528;2022-12-20T00:48:05;8.10;94.20
4578;DHT22;2301;47.354;8.528;2022-12-20T00:50:32;8.10;94.20
4578;DHT22;2301;47.354;8.528;2022-12-20T00:52:59;8.10;94.00
4578;DHT22;2301;47.354;8.528;2022-12-20T00:55:28;8.10;93.80
4578;DHT22;2301;47.354;8.528;2022-12-20T00:57:55;8.00;93.80
4578;DHT22;2301;47.354;8.528;2022-12-20T01:00:22;8.00;93.60
4578;DHT22;2301;47.354;8.528;2022-12-20T01:02:49;8.00;93.40
4578;DHT22;2301;47.354;8.528;2022-12-20T01:05:16;7.90;93.50
4578;DHT22;2301;47.354;8.528;2022-12-20T01:07:43;7.90;93.70
4578;DHT22;2301;47.354;8.528;2022-12-20T01:10:10;7.90;93.40
4578;DHT22;2301;47.354;8.528;2022-12-20T01:12:39;7.90;93.70
4578;DHT22;2301;47.354;8.528;2022-12-20T01:15:07;7.90;93.80
4578;DHT22;2301;47.354;8.528;2022-12-20T01:17:34;7.90;93.80
4578;DHT22;2301;47.354;8.528;2022-12-20T01:20:01;7.90;93.90
4578;DHT22;2301;47.354;8.528;2022-12-20T01:22:28;7.90;93.80
4578;DHT22;2301;47.354;8.528;2022-12-20T01:24:55;7.80;93.50
4578;DHT22;2301;47.354;8.528;2022-12-20T01:27:22;7.80;93.50
4578;DHT22;2301;47.354;8.528;2022-12-20T01:29:51;7.80;93.50
4578;DHT22;2301;47.354;8.528;2022-12-20T01:32:18;7.80;93.50
4578;DHT22;2301;47.354;8.528;2022-12-20T01:34:45;7.70;93.30
4578;DHT22;2301;47.354;8.528;2022-12-20T01:37:12;7.70;93.20
4578;DHT22;2301;47.354;8.528;2022-12-20T01:39:39;7.70;93.40
4578;DHT22;2301;47.354;8.528;2022-12-20T01:42:12;7.80;93.60
4578;DHT22;2301;47.354;8.528;2022-12-20T01:44:54;7.80;93.60
4578;DHT22;2301;47.354;8.528;2022-12-20T01:47:22;7.70;93.40
4578;DHT22;2301;47.354;8.528;2022-12-20T01:49:53;7.70;93.40
4578;DHT22;2301;47.354;8.528;2022-12-20T01:52:25;7.70;93.60
4578;DHT22;2301;47.354;8.528;2022-12-20T01:54:56;7.80;93.70
4578;DHT22;2301;47.354;8.528;2022-12-20T01:57:30;7.70;93.80
4578;DHT22;2301;47.354;8.528;2022-12-20T02:00:00;7.70;93.50
4578;DHT22;2301;47.354;8.528;2022-12-20T02:02:29;7.70;93.30
4578;DHT22;2301;47.354;8.528;2022-12-20T02:04:57;7.60;93.60
4578;DHT22;2301;47.354;8.528;2022-12-20T02:07:27;7.70;93.70
4578;DHT22;2301;47.354;8.528;2022-12-20T02:09:56;7.60;93.20
4578;DHT22;2301;47.354;8.528;2022-12-20T02:12:25;7.60;93.80
4578;DHT22;2301;47.354;8.528;2022-12-20T02:15:07;7.70;94.20
4578;DHT22;2301;47.354;8.528;2022-12-20T02:17:44;7.70;94.10
4578;DHT22;2301;47.354;8.528;2022-12-20T02:20:53;7.70;94.00
4578;DHT22;2301;47.354;8.528;2022-12-20T02:29:26;7.70;93.40
4578;DHT22;2301;47.354;8.528;2022-12-20T02:32:03;7.70;93.20
4578;DHT22;2301;47.354;8.528;2022-12-20T02:34:32;7.60;93.10
4578;DHT22;2301;47.354;8.528;2022-12-20T02:37:00;7.60;93.20
4578;DHT22;2301;47.354;8.528;2022-12-20T02:39:29;7.70;93.60
4578;DHT22;2301;47.354;8.528;2022-12-20T02:41:59;7.60;93.50
4578;DHT22;2301;47.354;8.528;2022-12-20T02:44:27;7.60;93.40
4578;DHT22;2301;47.354;8.528;2022-12-20T02:47:18;7.70;93.40
4578;DHT22;2301;47.354;8.528;2022-12-20T02:49:47;7.60;93.30
4578;DHT22;2301;47.354;8.528;2022-12-20T02:52:16;7.70;93.40
4578;DHT22;2301;47.354;8.528;2022-12-20T02:54:45;7.60;93.20
4578;DHT22;2301;47.354;8.528;2022-12-20T02:57:15;7.60;93.10
4578;DHT22;2301;47.354;8.528;2022-12-20T02:59:48;7.70;93.00
4578;DHT22;2301;47.354;8.528;2022-12-20T03:02:18;7.60;93.10
4578;DHT22;2301;47.354;8.528;2022-12-20T03:04:45;7.60;92.90
4578;DHT22;2301;47.354;8.528;2022-12-20T03:07:14;7.60;92.70
4578;DHT22;2301;47.354;8.528;2022-12-20T03:09:43;7.50;92.70
4578;DHT22;2301;47.354;8.528;2022-12-20T03:12:12;7.50;92.80
4578;DHT22;2301;47.354;8.528;2022-12-20T03:14:40;7.60;92.90
4578;DHT22;2301;47.354;8.528;2022-12-20T03:17:08;7.50;92.90
4578;DHT22;2301;47.354;8.528;2022-12-20T03:19:37;7.50;92.60
4578;DHT22;2301;47.354;8.528;2022-12-20T03:22:04;7.50;92.40
4578;DHT22;2301;47.354;8.528;2022-12-20T03:24:31;7.40;92.60
4578;DHT22;2301;47.354;8.528;2022-12-20T03:26:58;7.40;92.70
4578;DHT22;2301;47.354;8.528;2022-12-20T03:29:25;7.40;92.70
4578;DHT22;2301;47.354;8.528;2022-12-20T03:31:52;7.40;93.00
4578;DHT22;2301;47.354;8.528;2022-12-20T03:34:19;7.40;92.90
4578;DHT22;2301;47.354;8.528;2022-12-20T03:36:47;7.40;93.00
4578;DHT22;2301;47.354;8.528;2022-12-20T03:39:15;7.40;92.90
4578;DHT22;2301;47.354;8.528;2022-12-20T03:41:42;7.40;93.30
4578;DHT22;2301;47.354;8.528;2022-12-20T03:44:09;7.50;93.30
4578;DHT22;2301;47.354;8.528;2022-12-20T03:46:36;7.50;93.20
4578;DHT22;2301;47.354;8.528;2022-12-20T03:49:02;7.50;93.10
4578;DHT22;2301;47.354;8.528;2022-12-20T03:51:29;7.40;92.90
4578;DHT22;2301;47.354;8.528;2022-12-20T03:53:58;7.40;92.90
4578;DHT22;2301;47.354;8.528;2022-12-20T03:56:25;7.40;92.90
4578;DHT22;2301;47.354;8.528;2022-12-20T03:58:52;7.50;93.00
4578;DHT22;2301;47.354;8.528;2022-12-20T04:01:20;7.40;92.60
4578;DHT22;2301;47.354;8.528;2022-12-20T04:03:47;7.40;92.50
4578;DHT22;2301;47.354;8.528;2022-12-20T04:06:15;7.30;92.60
4578;DHT22;2301;47.354;8.528;2022-12-20T04:08:42;7.30;92.80
4578;DHT22;2301;47.354;8.528;2022-12-20T04:11:10;7.30;92.90
4578;DHT22;2301;47.354;8.528;2022-12-20T04:13:43;7.30;93.10
4578;DHT22;2301;47.354;8.528;2022-12-20T04:16:10;7.30;93.20
4578;DHT22;2301;47.354;8.528;2022-12-20T04:18:37;7.30;93.10
4578;DHT22;2301;47.354;8.528;2022-12-20T04:21:05;7.30;92.90
4578;DHT22;2301;47.354;8.528;2022-12-20T04:23:33;7.30;93.10
4578;DHT22;2301;47.354;8.528;2022-12-20T04:26:01;7.30;93.10
4578;DHT22;2301;47.354;8.528;2022-12-20T04:28:30;7.40;93.40
4578;DHT22;2301;47.354;8.528;2022-12-20T04:30:57;7.40;93.50
4578;DHT22;2301;47.354;8.528;2022-12-20T04:33:26;7.40;93.30
4578;DHT22;2301;47.354;8.528;2022-12-20T04:35:54;7.40;93.20
4578;DHT22;2301;47.354;8.528;2022-12-20T04:38:21;7.40;93.20
4578;DHT22;2301;47.354;8.528;2022-12-20T04:40:49;7.40;93.00
4578;DHT22;2301;47.354;8.528;2022-12-20T04:43:16;7.40;92.70
4578;DHT22;2301;47.354;8.528;2022-12-20T04:45:47;7.40;92.70
4578;DHT22;2301;47.354;8.528;2022-12-20T04:48:14;7.40;92.80
4578;DHT22;2301;47.354;8.528;2022-12-20T04:50:42;7.40;92.90
4578;DHT22;2301;47.354;8.528;2022-12-20T04:53:10;7.40;92.90
4578;DHT22;2301;47.354;8.528;2022-12-20T04:55:54;7.40;92.70
4578;DHT22;2301;47.354;8.528;2022-12-20T04:58:21;7.40;92.60
4578;DHT22;2301;47.354;8.528;2022-12-20T05:00:50;7.40;92.60
4578;DHT22;2301;47.354;8.528;2022-12-20T05:03:17;7.40;92.80
4578;DHT22;2301;47.354;8.528;2022-12-20T05:05:45;7.40;92.90
4578;DHT22;2301;47.354;8.528;2022-12-20T05:08:12;7.40;92.80
4578;DHT22;2301;47.354;8.528;2022-12-20T05:10:39;7.30;92.60
4578;DHT22;2301;47.354;8.528;2022-12-20T05:13:07;7.30;92.70
4578;DHT22;2301;47.354;8.528;2022-12-20T05:15:34;7.30;92.80
4578;DHT22;2301;47.354;8.528;2022-12-20T05:18:03;7.30;92.70
4578;DHT22;2301;47.354;8.528;2022-12-20T05:20:31;7.30;92.50
4578;DHT22;2301;47.354;8.528;2022-12-20T05:22:58;7.30;92.60
4578;DHT22;2301;47.354;8.528;2022-12-20T05:25:44;7.30;92.70
4578;DHT22;2301;47.354;8.528;2022-12-20T05:28:29;7.30;92.80
4578;DHT22;2301;47.354;8.528;2022-12-20T05:30:56;7.30;92.90
4578;DHT22;2301;47.354;8.528;2022-12-20T05:33:24;7.30;92.90
4578;DHT22;2301;47.354;8.528;2022-12-20T05:35:52;7.30;92.90
4578;DHT22;2301;47.354;8.528;2022-12-20T05:38:19;7.30;92.80
4578;DHT22;2301;47.354;8.528;2022-12-20T05:40:46;7.40;93.10
4578;DHT22;2301;47.354;8.528;2022-12-20T05:43:14;7.40;92.90
4578;DHT22;2301;47.354;8.528;2022-12-20T05:45:45;7.40;92.70
4578;DHT22;2301;47.354;8.528;2022-12-20T05:48:12;7.40;92.50
4578;DHT22;2301;47.354;8.528;2022-12-20T05:50:41;7.30;92.30
4578;DHT22;2301;47.354;8.528;2022-12-20T05:53:10;7.30;92.00
4578;DHT22;2301;47.354;8.528;2022-12-20T05:55:37;7.30;92.10
4578;DHT22;2301;47.354;8.528;2022-12-20T05:58:05;7.20;92.00
4578;DHT22;2301;47.354;8.528;2022-12-20T06:00:33;7.20;92.10
4578;DHT22;2301;47.354;8.528;2022-12-20T06:03:00;7.20;92.20
4578;DHT22;2301;47.354;8.528;2022-12-20T06:05:28;7.20;92.30
4578;DHT22;2301;47.354;8.528;2022-12-20T06:07:56;7.20;92.40
4578;DHT22;2301;47.354;8.528;2022-12-20T06:10:23;7.20;92.10
4578;DHT22;2301;47.354;8.528;2022-12-20T06:12:51;7.20;92.10
4578;DHT22;2301;47.354;8.528;2022-12-20T06:15:18;7.20;92.20
4578;DHT22;2301;47.354;8.528;2022-12-20T06:17:45;7.20;92.20
4578;DHT22;2301;47.354;8.528;2022-12-20T06:20:13;7.20;92.20
4578;DHT22;2301;47.354;8.528;2022-12-20T06:22:40;7.20;92.20
4578;DHT22;2301;47.354;8.528;2022-12-20T06:25:08;7.20;92.10
4578;DHT22;2301;47.354;8.528;2022-12-20T06:27:37;7.10;92.20
4578;DHT22;2301;47.354;8.528;2022-12-20T06:30:05;7.10;92.40
4578;DHT22;2301;47.354;8.528;2022-12-20T06:32:32;7.10;92.40
4578;DHT22;2301;47.354;8.528;2022-12-20T06:34:59;7.10;92.40
4578;DHT22;2301;47.354;8.528;2022-12-20T06:37:26;7.10;92.60
4578;DHT22;2301;47.354;8.528;2022-12-20T06:39:53;7.10;92.60
4578;DHT22;2301;47.354;8.528;2022-12-20T06:42:22;7.20;92.70
4578;DHT22;2301;47.354;8.528;2022-12-20T06:44:49;7.20;92.60
4578;DHT22;2301;47.354;8.528;2022-12-20T06:47:16;7.20;92.70
4578;DHT22;2301;47.354;8.528;2022-12-20T06:49:43;7.20;92.70
4578;DHT22;2301;47.354;8.528;2022-12-20T06:52:10;7.20;91.90
4578;DHT22;2301;47.354;8.528;2022-12-20T06:54:37;7.00;90.70
4578;DHT22;2301;47.354;8.528;2022-12-20T06:57:05;6.90;90.10
4578;DHT22;2301;47.354;8.528;2022-12-20T06:59:33;6.70;89.70
4578;DHT22;2301;47.354;8.528;2022-12-20T07:02:01;6.50;89.40
4578;DHT22;2301;47.354;8.528;2022-12-20T07:04:28;6.50;89.60
4578;DHT22;2301;47.354;8.528;2022-12-20T07:06:55;6.40;89.60
4578;DHT22;2301;47.354;8.528;2022-12-20T07:09:23;6.20;89.60
4578;DHT22;2301;47.354;8.528;2022-12-20T07:12:15;6.10;89.80
4578;DHT22;2301;47.354;8.528;2022-12-20T07:14:56;6.00;90.00
4578;DHT22;2301;47.354;8.528;2022-12-20T07:17:35;5.90;90.10
4578;DHT22;2301;47.354;8.528;2022-12-20T07:20:05;5.80;90.20
4578;DHT22;2301;47.354;8.528;2022-12-20T07:22:35;5.80;90.40
4578;DHT22;2301;47.354;8.528;2022-12-20T07:28:13;5.70;90.40
4578;DHT22;2301;47.354;8.528;2022-12-20T07:31:20;5.60;90.40
4578;DHT22;2301;47.354;8.528;2022-12-20T07:34:01;5.50;90.50
4578;DHT22;2301;47.354;8.528;2022-12-20T07:36:42;5.50;90.70
4578;DHT22;2301;47.354;8.528;2022-12-20T07:45:47;5.40;91.10
4578;DHT22;2301;47.354;8.528;2022-12-20T07:51:48;5.40;91.30
4578;DHT22;2301;47.354;8.528;2022-12-20T07:54:18;5.40;91.40
4578;DHT22;2301;47.354;8.528;2022-12-20T07:56:52;5.40;91.50
4578;DHT22;2301;47.354;8.528;2022-12-20T07:59:38;5.40;91.70
4578;DHT22;2301;47.354;8.528;2022-12-20T08:02:22;5.40;91.80
4578;DHT22;2301;47.354;8.528;2022-12-20T08:05:07;5.50;91.90
4578;DHT22;2301;47.354;8.528;2022-12-20T08:07:50;5.50;92.00
4578;DHT22;2301;47.354;8.528;2022-12-20T08:10:36;5.40;92.00
4578;DHT22;2301;47.354;8.528;2022-12-20T08:13:08;5.40;92.10
4578;DHT22;2301;47.354;8.528;2022-12-20T08:15:45;5.50;92.30
4578;DHT22;2301;47.354;8.528;2022-12-20T08:18:27;5.50;92.40
4578;DHT22;2301;47.354;8.528;2022-12-20T08:21:03;5.50;92.40
4578;DHT22;2301;47.354;8.528;2022-12-20T08:23:33;5.60;92.50
4578;DHT22;2301;47.354;8.528;2022-12-20T08:26:00;5.60;92.50
4578;DHT22;2301;47.354;8.528;2022-12-20T08:28:30;5.60;92.50
4578;DHT22;2301;47.354;8.528;2022-12-20T08:31:02;5.70;92.60
4578;DHT22;2301;47.354;8.528;2022-12-20T08:33:41;5.70;92.60
4578;DHT22;2301;47.354;8.528;2022-12-20T08:39:33;5.70;92.60
4578;DHT22;2301;47.354;8.528;2022-12-20T08:45:02;5.70;92.80
4578;DHT22;2301;47.354;8.528;2022-12-20T08:50:12;5.80;92.90
4578;DHT22;2301;47.354;8.528;2022-12-20T09:03:04;6.00;93.10
4578;DHT22;2301;47.354;8.528;2022-12-20T09:06:06;6.10;93.10
4578;DHT22;2301;47.354;8.528;2022-12-20T09:08:33;6.00;93.10
4578;DHT22;2301;47.354;8.528;2022-12-20T09:11:11;6.10;93.20
4578;DHT22;2301;47.354;8.528;2022-12-20T09:13:40;6.10;93.20
4578;DHT22;2301;47.354;8.528;2022-12-20T09:16:08;6.70;99.30
4578;DHT22;2301;47.354;8.528;2022-12-20T09:18:36;6.90;96.80
4578;DHT22;2301;47.354;8.528;2022-12-20T09:21:05;6.90;95.70
4578;DHT22;2301;47.354;8.528;2022-12-20T09:23:34;6.80;95.10
4578;DHT22;2301;47.354;8.528;2022-12-20T09:26:02;6.90;94.60
4578;DHT22;2301;47.354;8.528;2022-12-20T09:28:29;6.80;94.20
4578;DHT22;2301;47.354;8.528;2022-12-20T09:30:57;6.80;93.90
4578;DHT22;2301;47.354;8.528;2022-12-20T09:33:24;6.80;93.70
4578;DHT22;2301;47.354;8.528;2022-12-20T09:35:54;6.80;93.60
4578;DHT22;2301;47.354;8.528;2022-12-20T09:38:21;6.80;93.60
4578;DHT22;2301;47.354;8.528;2022-12-20T09:40:51;6.80;93.50
4578;DHT22;2301;47.354;8.528;2022-12-20T09:43:19;6.90;93.40
4578;DHT22;2301;47.354;8.528;2022-12-20T09:45:50;6.90;93.30
4578;DHT22;2301;47.354;8.528;2022-12-20T09:48:21;6.90;93.30
4578;DHT22;2301;47.354;8.528;2022-12-20T09:50:57;6.90;93.20
4578;DHT22;2301;47.354;8.528;2022-12-20T09:53:33;6.90;93.10
4578;DHT22;2301;47.354;8.528;2022-12-20T09:56:06;6.90;93.40
4578;DHT22;2301;47.354;8.528;2022-12-20T09:58:44;6.90;93.10
4578;DHT22;2301;47.354;8.528;2022-12-20T10:01:20;6.90;93.00
4578;DHT22;2301;47.354;8.528;2022-12-20T10:03:47;6.90;93.00
4578;DHT22;2301;47.354;8.528;2022-12-20T10:06:22;6.90;93.00
4578;DHT22;2301;47.354;8.528;2022-12-20T10:08:54;7.00;93.10
4578;DHT22;2301;47.354;8.528;2022-12-20T10:11:40;7.00;93.00
4578;DHT22;2301;47.354;8.528;2022-12-20T10:14:23;7.00;93.00
4578;DHT22;2301;47.354;8.528;2022-12-20T10:16:56;7.00;93.10
4578;DHT22;2301;47.354;8.528;2022-12-20T10:19:34;7.10;93.20
4578;DHT22;2301;47.354;8.528;2022-12-20T10:22:10;7.10;93.10
4578;DHT22;2301;47.354;8.528;2022-12-20T10:24:44;7.20;93.20
4578;DHT22;2301;47.354;8.528;2022-12-20T10:27:16;7.20;93.20
4578;DHT22;2301;47.354;8.528;2022-12-20T10:29:44;7.20;93.20
4578;DHT22;2301;47.354;8.528;2022-12-20T10:32:14;7.30;93.40
4578;DHT22;2301;47.354;8.528;2022-12-20T10:34:49;7.40;93.30
4578;DHT22;2301;47.354;8.528;2022-12-20T10:37:19;7.40;93.20
4578;DHT22;2301;47.354;8.528;2022-12-20T10:39:47;7.50;93.20
4578;DHT22;2301;47.354;8.528;2022-12-20T10:42:35;7.60;93.10
4578;DHT22;2301;47.354;8.528;2022-12-20T10:45:25;7.60;93.10
4578;DHT22;2301;47.354;8.528;2022-12-20T10:47:58;7.60;93.00
4578;DHT22;2301;47.354;8.528;2022-12-20T10:50:25;7.70;93.00
4578;DHT22;2301;47.354;8.528;2022-12-20T10:53:11;7.80;93.00
4578;DHT22;2301;47.354;8.528;2022-12-20T10:55:42;7.90;93.20
4578;DHT22;2301;47.354;8.528;2022-12-20T10:58:13;8.10;93.20
4578;DHT22;2301;47.354;8.528;2022-12-20T11:00:41;8.20;92.90
4578;DHT22;2301;47.354;8.528;2022-12-20T11:03:22;8.30;92.80
4578;DHT22;2301;47.354;8.528;2022-12-20T11:05:55;8.30;92.80
4578;DHT22;2301;47.354;8.528;2022-12-20T11:08:23;8.40;92.70
4578;DHT22;2301;47.354;8.528;2022-12-20T11:11:11;8.40;92.60
4578;DHT22;2301;47.354;8.528;2022-12-20T11:13:39;8.50;92.60
4578;DHT22;2301;47.354;8.528;2022-12-20T11:16:28;8.50;92.50
4578;DHT22;2301;47.354;8.528;2022-12-20T11:22:24;8.60;92.40
4578;DHT22;2301;47.354;8.528;2022-12-20T11:25:02;8.50;92.40
4578;DHT22;2301;47.354;8.528;2022-12-20T11:27:34;8.50;92.40
4578;DHT22;2301;47.354;8.528;2022-12-20T11:30:11;8.40;92.50
4578;DHT22;2301;47.354;8.528;2022-12-20T11:32:56;8.40;92.60
4578;DHT22;2301;47.354;8.528;2022-12-20T11:35:31;8.40;92.70
4578;DHT22;2301;47.354;8.528;2022-12-20T11:38:11;8.50;92.90
4578;DHT22;2301;47.354;8.528;2022-12-20T11:40:45;9.40;99.90
4578;DHT22;2301;47.354;8.528;2022-12-20T11:43:25;10.00;97.80
4578;DHT22;2301;47.354;8.528;2022-12-20T11:46:04;10.10;94.80
4578;DHT22;2301;47.354;8.528;2022-12-20T11:48:52;10.00;93.40
4578;DHT22;2301;47.354;8.528;2022-12-20T11:51:31;9.90;93.10
4578;DHT22;2301;47.354;8.528;2022-12-20T11:54:05;9.70;92.70
4578;DHT22;2301;47.354;8.528;2022-12-20T11:56:37;9.60;92.30
4578;DHT22;2301;47.354;8.528;2022-12-20T11:59:09;9.50;92.00
4578;DHT22;2301;47.354;8.528;2022-12-20T12:01:42;9.50;92.00
4578;DHT22;2301;47.354;8.528;2022-12-20T12:04:13;9.50;92.00
4578;DHT22;2301;47.354;8.528;2022-12-20T12:06:46;9.50;91.90
4578;DHT22;2301;47.354;8.528;2022-12-20T12:09:20;9.50;91.80
4578;DHT22;2301;47.354;8.528;2022-12-20T12:11:51;9.50;91.80
4578;DHT22;2301;47.354;8.528;2022-12-20T12:14:29;9.40;91.60
4578;DHT22;2301;47.354;8.528;2022-12-20T12:17:03;9.40;92.00
4578;DHT22;2301;47.354;8.528;2022-12-20T12:19:36;9.40;91.60
4578;DHT22;2301;47.354;8.528;2022-12-20T12:22:12;9.50;91.80
4578;DHT22;2301;47.354;8.528;2022-12-20T12:24:45;9.50;91.80
4578;DHT22;2301;47.354;8.528;2022-12-20T12:27:23;9.50;91.70
4578;DHT22;2301;47.354;8.528;2022-12-20T12:29:50;9.60;91.70
4578;DHT22;2301;47.354;8.528;2022-12-20T12:32:25;9.60;91.70
4578;DHT22;2301;47.354;8.528;2022-12-20T12:35:07;9.80;91.70
4578;DHT22;2301;47.354;8.528;2022-12-20T12:38:03;9.90;91.60
4578;DHT22;2301;47.354;8.528;2022-12-20T12:40:54;10.10;91.10
4578;DHT22;2301;47.354;8.528;2022-12-20T12:43:48;10.30;91.00
4578;DHT22;2301;47.354;8.528;2022-12-20T12:46:18;10.40;90.30
4578;DHT22;2301;47.354;8.528;2022-12-20T12:48:51;10.50;89.30
4578;DHT22;2301;47.354;8.528;2022-12-20T12:51:24;10.60;88.20
4578;DHT22;2301;47.354;8.528;2022-12-20T12:54:00;10.70;87.40
4578;DHT22;2301;47.354;8.528;2022-12-20T12:56:38;10.70;86.20
4578;DHT22;2301;47.354;8.528;2022-12-20T13:02:22;10.80;84.60
4578;DHT22;2301;47.354;8.528;2022-12-20T13:04:54;10.70;84.00
4578;DHT22;2301;47.354;8.528;2022-12-20T13:07:27;10.60;83.40
4578;DHT22;2301;47.354;8.528;2022-12-20T13:09:57;10.50;83.60
4578;DHT22;2301;47.354;8.528;2022-12-20T13:12:57;10.50;83.90
4578;DHT22;2301;47.354;8.528;2022-12-20T13:15:48;10.50;83.70
4578;DHT22;2301;47.354;8.528;2022-12-20T13:18:24;10.60;84.20
4578;DHT22;2301;47.354;8.528;2022-12-20T13:21:30;10.60;84.00
4578;DHT22;2301;47.354;8.528;2022-12-20T13:27:29;10.90;83.90
4578;DHT22;2301;47.354;8.528;2022-12-20T13:33:16;10.90;83.20
4578;DHT22;2301;47.354;8.528;2022-12-20T13:35:55;10.90;82.40
4578;DHT22;2301;47.354;8.528;2022-12-20T13:38:48;10.80;82.00
4578;DHT22;2301;47.354;8.528;2022-12-20T13:41:39;10.80;82.40
4578;DHT22;2301;47.354;8.528;2022-12-20T13:44:38;10.70;82.40
4578;DHT22;2301;47.354;8.528;2022-12-20T13:47:27;10.70;82.60
4578;DHT22;2301;47.354;8.528;2022-12-20T13:50:00;10.60;82.70
4578;DHT22;2301;47.354;8.528;2022-12-20T13:52:29;10.60;83.00
4578;DHT22;2301;47.354;8.528;2022-12-20T13:54:59;10.50;83.30
4578;DHT22;2301;47.354;8.528;2022-12-20T13:57:32;10.60;83.70
4578;DHT22;2301;47.354;8.528;2022-12-20T14:00:14;10.60;84.20
4578;DHT22;2301;47.354;8.528;2022-12-20T14:02:42;10.60;84.60
4578;DHT22;2301;47.354;8.528;2022-12-20T14:05:15;10.60;84.70
4578;DHT22;2301;47.354;8.528;2022-12-20T14:07:45;10.50;84.50
4578;DHT22;2301;47.354;8.528;2022-12-20T14:10:20;10.50;85.40
4578;DHT22;2301;47.354;8.528;2022-12-20T14:12:49;10.50;85.00
4578;DHT22;2301;47.354;8.528;2022-12-20T14:15:29;10.50;85.30
4578;DHT22;2301;47.354;8.528;2022-12-20T14:17:56;10.50;86.10
4578;DHT22;2301;47.354;8.528;2022-12-20T14:20:27;10.40;86.40
4578;DHT22;2301;47.354;8.528;2022-12-20T14:22:58;10.40;86.90
4578;DHT22;2301;47.354;8.528;2022-12-20T14:25:36;10.50;87.10
4578;DHT22;2301;47.354;8.528;2022-12-20T14:28:04;10.50;87.10
4578;DHT22;2301;47.354;8.528;2022-12-20T14:30:41;10.50;87.00
4578;DHT22;2301;47.354;8.528;2022-12-20T14:33:21;10.50;86.80
4578;DHT22;2301;47.354;8.528;2022-12-20T14:35:49;10.50;86.80
4578;DHT22;2301;47.354;8.528;2022-12-20T14:38:21;10.50;86.90
4578;DHT22;2301;47.354;8.528;2022-12-20T14:40:49;10.40;87.00
4578;DHT22;2301;47.354;8.528;2022-12-20T14:43:24;10.40;87.10
4578;DHT22;2301;47.354;8.528;2022-12-20T14:46:12;10.50;86.90
4578;DHT22;2301;47.354;8.528;2022-12-20T14:48:41;10.50;86.50
4578;DHT22;2301;47.354;8.528;2022-12-20T14:51:08;10.50;86.40
4578;DHT22;2301;47.354;8.528;2022-12-20T14:53:36;10.50;86.20
4578;DHT22;2301;47.354;8.528;2022-12-20T14:56:10;10.50;86.00
4578;DHT22;2301;47.354;8.528;2022-12-20T14:58:39;10.50;85.80
4578;DHT22;2301;47.354;8.528;2022-12-20T15:01:19;10.50;85.70
4578;DHT22;2301;47.354;8.528;2022-12-20T15:03:50;10.50;85.50
4578;DHT22;2301;47.354;8.528;2022-12-20T15:06:31;10.40;85.40
4578;DHT22;2301;47.354;8.528;2022-12-20T15:08:58;10.40;84.40
4578;DHT22;2301;47.354;8.528;2022-12-20T15:11:25;10.30;84.20
4578;DHT22;2301;47.354;8.528;2022-12-20T15:13:53;10.20;83.70
4578;DHT22;2301;47.354;8.528;2022-12-20T15:16:23;10.20;83.60
4578;DHT22;2301;47.354;8.528;2022-12-20T15:18:51;10.20;83.70
4578;DHT22;2301;47.354;8.528;2022-12-20T15:21:27;10.10;83.80
4578;DHT22;2301;47.354;8.528;2022-12-20T15:23:55;10.10;83.90
4578;DHT22;2301;47.354;8.528;2022-12-20T15:26:25;10.00;84.00
4578;DHT22;2301;47.354;8.528;2022-12-20T15:28:53;10.00;83.90
4578;DHT22;2301;47.354;8.528;2022-12-20T15:31:22;10.00;83.90
4578;DHT22;2301;47.354;8.528;2022-12-20T15:33:50;10.00;84.40
4578;DHT22;2301;47.354;8.528;2022-12-20T15:36:21;9.90;84.50
4578;DHT22;2301;47.354;8.528;2022-12-20T15:38:51;9.90;84.50
4578;DHT22;2301;47.354;8.528;2022-12-20T15:41:21;9.80;84.60
4578;DHT22;2301;47.354;8.528;2022-12-20T15:43:51;9.80;84.60
4578;DHT22;2301;47.354;8.528;2022-12-20T15:46:20;9.80;84.40
4578;DHT22;2301;47.354;8.528;2022-12-20T15:48:48;9.70;84.20
4578;DHT22;2301;47.354;8.528;2022-12-20T15:51:20;9.70;83.60
4578;DHT22;2301;47.354;8.528;2022-12-20T15:53:48;9.70;83.60
4578;DHT22;2301;47.354;8.528;2022-12-20T15:56:17;9.70;83.00
4578;DHT22;2301;47.354;8.528;2022-12-20T15:58:46;9.70;82.80
4578;DHT22;2301;47.354;8.528;2022-12-20T16:01:17;9.60;82.70
4578;DHT22;2301;47.354;8.528;2022-12-20T16:03:45;9.60;83.30
4578;DHT22;2301;47.354;8.528;2022-12-20T16:06:14;9.60;84.00
4578;DHT22;2301;47.354;8.528;2022-12-20T16:08:41;9.60;84.30
4578;DHT22;2301;47.354;8.528;2022-12-20T16:11:18;9.60;84.60
4578;DHT22;2301;47.354;8.528;2022-12-20T16:13:46;9.60;84.60
4578;DHT22;2301;47.354;8.528;2022-12-20T16:16:16;9.60;84.50
4578;DHT22;2301;47.354;8.528;2022-12-20T16:18:43;9.60;84.60
4578;DHT22;2301;47.354;8.528;2022-12-20T16:21:15;9.60;84.40
4578;DHT22;2301;47.354;8.528;2022-12-20T16:23:43;9.60;84.40
4578;DHT22;2301;47.354;8.528;2022-12-20T16:26:12;9.60;84.00
4578;DHT22;2301;47.354;8.528;2022-12-20T16:28:39;9.60;83.90
4578;DHT22;2301;47.354;8.528;2022-12-20T16:31:10;9.60;83.60
4578;DHT22;2301;47.354;8.528;2022-12-20T16:33:39;9.60;83.60
4578;DHT22;2301;47.354;8.528;2022-12-20T16:36:09;9.60;83.80
4578;DHT22;2301;47.354;8.528;2022-12-20T16:38:38;9.60;84.10
4578;DHT22;2301;47.354;8.528;2022-12-20T16:41:11;9.60;84.40
4578;DHT22;2301;47.354;8.528;2022-12-20T16:43:38;9.70;84.10
4578;DHT22;2301;47.354;8.528;2022-12-20T16:46:07;9.70;84.30
4578;DHT22;2301;47.354;8.528;2022-12-20T16:48:35;9.70;84.10
4578;DHT22;2301;47.354;8.528;2022-12-20T16:51:02;9.70;83.90
4578;DHT22;2301;47.354;8.528;2022-12-20T16:53:29;9.70;83.40
4578;DHT22;2301;47.354;8.528;2022-12-20T16:55:58;9.70;83.20
4578;DHT22;2301;47.354;8.528;2022-12-20T16:58:25;9.70;83.20
4578;DHT22;2301;47.354;8.528;2022-12-20T17:00:52;9.70;83.00
4578;DHT22;2301;47.354;8.528;2022-12-20T17:03:19;9.70;82.20
4578;DHT22;2301;47.354;8.528;2022-12-20T17:05:46;9.80;82.00
4578;DHT22;2301;47.354;8.528;2022-12-20T17:08:13;9.80;81.60
4578;DHT22;2301;47.354;8.528;2022-12-20T17:10:40;9.80;81.60
4578;DHT22;2301;47.354;8.528;2022-12-20T17:13:10;9.80;81.50
4578;DHT22;2301;47.354;8.528;2022-12-20T17:15:38;9.80;81.40
4578;DHT22;2301;47.354;8.528;2022-12-20T17:18:07;9.80;81.50
4578;DHT22;2301;47.354;8.528;2022-12-20T17:20:34;9.80;81.40
4578;DHT22;2301;47.354;8.528;2022-12-20T17:23:01;9.80;81.70
4578;DHT22;2301;47.354;8.528;2022-12-20T17:25:31;9.80;82.00
4578;DHT22;2301;47.354;8.528;2022-12-20T17:28:00;9.80;82.40
4578;DHT22;2301;47.354;8.528;2022-12-20T17:30:29;9.80;82.50
4578;DHT22;2301;47.354;8.528;2022-12-20T17:32:56;9.80;82.00
4578;DHT22;2301;47.354;8.528;2022-12-20T17:35:26;9.80;81.80